createdAt,value
2022-11-23T00:01:26.293Z,27.83
2022-11-23T00:03:55.238Z,31.42
2022-11-23T00:06:23.523Z,29.25
2022-11-23T00:08:51.015Z,28.25
2022-11-23T00:11:19.754Z,28.45
2022-11-23T00:13:46.461Z,29.95
2022-11-23T00:16:21.623Z,35.40
2022-11-23T00:18:48.629Z,32.65
2022-11-23T00:23:43.953Z,29.27
2022-11-23T00:26:11.636Z,31.50
2022-11-23T00:28:40.646Z,31.10
2022-11-23T00:31:08.351Z,29.60
2022-11-23T00:33:35.105Z,33.15
2022-11-23T00:36:04.069Z,29.48
2022-11-23T00:38:31.153Z,33.17
2022-11-23T00:43:25.328Z,31.92
2022-11-23T00:46:03.066Z,31.05
2022-11-23T00:48:30.107Z,30.65
2022-11-23T00:55:54.287Z,28.92
2022-11-23T00:58:21.507Z,32.88
2022-11-23T01:00:48.578Z,31.30
2022-11-23T01:05:42.684Z,27.40
2022-11-23T01:10:35.756Z,29.38
2022-11-23T01:13:02.367Z,29.65
2022-11-23T01:15:28.910Z,30.75
2022-11-23T01:17:55.479Z,31.88
2022-11-23T01:20:21.986Z,28.70
2022-11-23T01:22:48.522Z,30.90
2022-11-23T01:25:15.113Z,29.88
2022-11-23T01:27:41.795Z,29.02
2022-11-23T01:30:08.975Z,29.65
2022-11-23T01:32:35.549Z,32.95
2022-11-23T01:35:02.083Z,29.80
2022-11-23T01:37:28.650Z,30.38
2022-11-23T01:39:55.201Z,28.63
2022-11-23T01:42:21.737Z,30.70
2022-11-23T01:44:48.356Z,30.48
2022-11-23T01:47:14.902Z,30.30
2022-11-23T01:49:46.494Z,26.75
2022-11-23T01:52:20.258Z,25.35
2022-11-23T01:54:50.451Z,25.73
2022-11-23T01:57:25.075Z,27.02
2022-11-23T01:59:53.240Z,26.52
2022-11-23T02:02:19.894Z,27.02
2022-11-23T02:04:49.258Z,24.27
2022-11-23T02:07:18.822Z,27.45
2022-11-23T02:09:46.848Z,26.23
2022-11-23T02:12:14.767Z,25.73
2022-11-23T02:14:42.278Z,27.52
2022-11-23T02:17:09.277Z,26.58
2022-11-23T02:22:02.751Z,28.85
2022-11-23T02:27:02.053Z,31.47
2022-11-23T02:29:29.848Z,27.83
2022-11-23T02:31:56.805Z,29.55
2022-11-23T02:34:23.368Z,26.65
2022-11-23T02:36:52.858Z,20.52
2022-11-23T02:39:27.539Z,30.35
2022-11-23T02:41:55.946Z,28.05
2022-11-23T02:44:50.662Z,29.25
2022-11-23T02:47:17.449Z,28.27
2022-11-23T02:49:47.698Z,27.63
2022-11-23T02:52:14.559Z,31.67
2022-11-23T02:54:41.161Z,33.42
2022-11-23T02:57:08.498Z,34.75
2022-11-23T02:59:35.360Z,29.85
2022-11-23T03:02:03.431Z,28.77
2022-11-23T03:04:30.157Z,30.33
2022-11-23T03:06:57.167Z,25.27
2022-11-23T03:11:53.533Z,31.58
2022-11-23T03:14:20.850Z,30.35
2022-11-23T03:16:47.446Z,27.17
2022-11-23T03:19:14.071Z,31.83
2022-11-23T03:21:40.621Z,31.73
2022-11-23T03:24:07.154Z,33.58
2022-11-23T03:26:33.746Z,33.63
2022-11-23T03:29:00.251Z,31.52
2022-11-23T03:31:27.052Z,33.90
2022-11-23T03:33:53.592Z,37.95
2022-11-23T03:36:20.171Z,31.30
2022-11-23T03:38:46.737Z,24.52
2022-11-23T03:41:13.351Z,31.77
2022-11-23T03:43:39.915Z,27.77
2022-11-23T03:46:06.507Z,31.00
2022-11-23T03:48:33.036Z,30.92
2022-11-23T03:50:59.547Z,30.00
2022-11-23T03:53:26.463Z,32.53
2022-11-23T03:58:22.082Z,30.63
2022-11-23T04:00:48.621Z,30.25
2022-11-23T04:03:15.358Z,28.17
2022-11-23T04:05:41.862Z,30.38
2022-11-23T04:08:09.552Z,30.98
2022-11-23T04:10:36.064Z,32.38
2022-11-23T04:13:02.876Z,31.08
2022-11-23T04:15:29.475Z,31.25
2022-11-23T04:17:56.154Z,30.88
2022-11-23T04:20:22.687Z,33.47
2022-11-23T04:22:49.274Z,32.53
2022-11-23T04:25:15.807Z,34.88
2022-11-23T04:27:42.441Z,28.85
2022-11-23T04:30:09.873Z,32.17
2022-11-23T04:32:36.418Z,30.13
2022-11-23T04:35:03.157Z,28.55
2022-11-23T04:37:29.777Z,30.95
2022-11-23T04:39:56.317Z,29.10
2022-11-23T04:42:22.926Z,32.38
2022-11-23T04:44:49.491Z,33.45
2022-11-23T04:47:16.124Z,33.08
2022-11-23T04:49:42.649Z,30.70
2022-11-23T04:52:09.167Z,35.70
2022-11-23T04:54:35.723Z,33.97
2022-11-23T04:57:02.254Z,33.13
2022-11-23T04:59:29.041Z,33.35
2022-11-23T05:04:22.181Z,33.95
2022-11-23T05:06:48.804Z,34.75
2022-11-23T05:09:15.705Z,33.63
2022-11-23T05:11:42.339Z,33.65
2022-11-23T05:14:08.970Z,36.58
2022-11-23T05:16:35.644Z,32.95
2022-11-23T05:19:02.527Z,33.60
2022-11-23T05:21:29.162Z,32.13
2022-11-23T05:23:55.782Z,36.38
2022-11-23T05:26:22.398Z,31.90
2022-11-23T05:28:49.145Z,31.30
2022-11-23T05:31:15.718Z,32.30
2022-11-23T05:33:42.254Z,31.40
2022-11-23T05:36:09.359Z,34.65
2022-11-23T05:38:35.911Z,33.47
2022-11-23T05:41:02.438Z,37.45
2022-11-23T05:43:29.008Z,34.50
2022-11-23T05:45:59.052Z,33.35
2022-11-23T05:48:25.701Z,33.97
2022-11-23T05:50:52.388Z,35.28
2022-11-23T05:53:19.308Z,33.63
2022-11-23T05:55:46.238Z,32.38
2022-11-23T05:58:13.035Z,34.88
2022-11-23T06:00:39.555Z,35.00
2022-11-23T06:03:06.062Z,32.88
2022-11-23T06:05:32.988Z,33.88
2022-11-23T06:10:26.020Z,34.45
2022-11-23T06:12:52.846Z,27.50
2022-11-23T06:15:19.555Z,34.97
2022-11-23T06:17:46.081Z,35.83
2022-11-23T06:20:12.769Z,33.83
2022-11-23T06:22:39.573Z,31.23
2022-11-23T06:25:06.596Z,34.15
2022-11-23T06:29:59.527Z,36.08
2022-11-23T06:32:26.046Z,35.63
2022-11-23T06:34:53.885Z,33.85
2022-11-23T06:37:23.605Z,36.38
2022-11-23T06:39:50.083Z,33.22
2022-11-23T06:42:37.761Z,33.22
2022-11-23T06:45:03.743Z,35.15
2022-11-23T06:47:30.277Z,37.22
2022-11-23T06:49:56.747Z,30.38
2022-11-23T06:52:23.277Z,32.83
2022-11-23T06:54:49.768Z,36.08
2022-11-23T06:57:16.344Z,34.08
2022-11-23T06:59:45.048Z,34.15
2022-11-23T07:02:12.517Z,34.87
2022-11-23T07:04:39.109Z,34.17
2022-11-23T07:07:07.799Z,33.50
2022-11-23T07:09:35.054Z,31.55
2022-11-23T07:12:01.791Z,32.05
2022-11-23T07:14:28.355Z,31.65
2022-11-23T07:16:54.921Z,32.58
2022-11-23T07:19:21.394Z,33.05
2022-11-23T07:21:47.955Z,28.80
2022-11-23T07:24:14.477Z,34.20
2022-11-23T07:26:41.041Z,32.30
2022-11-23T07:29:07.598Z,28.33
2022-11-23T07:31:34.080Z,27.27
2022-11-23T07:34:00.549Z,33.17
2022-11-23T07:36:27.053Z,36.10
2022-11-23T07:38:53.582Z,36.45
2022-11-23T07:41:20.100Z,33.58
2022-11-23T07:43:46.663Z,35.28
2022-11-23T07:46:13.283Z,32.33
2022-11-23T07:48:39.847Z,32.30
2022-11-23T07:51:06.370Z,24.85
2022-11-23T07:53:32.881Z,37.92
2022-11-23T07:55:59.460Z,23.23
2022-11-23T07:58:26.237Z,30.27
2022-11-23T08:00:52.815Z,34.38
2022-11-23T08:03:27.730Z,34.33
2022-11-23T08:05:54.957Z,33.42
2022-11-23T08:08:21.510Z,32.05
2022-11-23T08:10:53.005Z,31.20
2022-11-23T08:13:20.410Z,31.63
2022-11-23T08:15:53.251Z,30.25
2022-11-23T08:18:20.910Z,28.27
2022-11-23T08:20:47.478Z,34.75
2022-11-23T08:23:14.037Z,36.17
2022-11-23T08:25:40.586Z,31.90
2022-11-23T08:28:07.161Z,26.17
2022-11-23T08:30:34.431Z,34.00
2022-11-23T08:33:08.065Z,32.87
2022-11-23T08:35:36.529Z,34.33
2022-11-23T08:38:04.527Z,32.55
2022-11-23T08:40:31.156Z,34.28
2022-11-23T08:42:57.706Z,34.75
2022-11-23T08:45:24.241Z,32.67
2022-11-23T08:47:51.192Z,33.38
2022-11-23T08:50:18.032Z,32.20
2022-11-23T08:52:44.576Z,30.83
2022-11-23T08:55:11.652Z,31.85
2022-11-23T09:00:06.087Z,28.73
2022-11-23T09:02:33.032Z,31.88
2022-11-23T09:05:00.696Z,33.60
2022-11-23T09:07:27.313Z,30.15
2022-11-23T09:09:53.917Z,29.70
2022-11-23T09:12:20.408Z,32.08
2022-11-23T09:14:46.959Z,34.80
2022-11-23T09:17:13.481Z,31.55
2022-11-23T09:19:39.930Z,33.78
2022-11-23T09:22:06.450Z,33.45
2022-11-23T09:24:34.410Z,32.63
2022-11-23T09:29:28.170Z,34.25
2022-11-23T09:31:54.753Z,27.35
2022-11-23T09:34:21.269Z,32.80
2022-11-23T09:36:48.100Z,28.75
2022-11-23T09:39:14.820Z,28.20
2022-11-23T09:41:41.255Z,29.00
2022-11-23T09:44:52.234Z,30.27
2022-11-23T09:47:51.583Z,32.97
2022-11-23T09:50:28.337Z,30.92
2022-11-23T09:52:54.909Z,27.67
2022-11-23T09:55:41.789Z,29.60
2022-11-23T09:58:14.086Z,30.67
2022-11-23T10:00:48.814Z,30.40
2022-11-23T10:03:17.586Z,31.75
2022-11-23T10:05:53.948Z,30.10
2022-11-23T10:08:51.366Z,34.65
2022-11-23T10:11:23.657Z,31.52
2022-11-23T10:14:28.398Z,30.13
2022-11-23T10:17:34.000Z,29.50
2022-11-23T10:20:25.243Z,29.27
2022-11-23T10:22:58.700Z,29.75
2022-11-23T10:25:29.186Z,29.83
2022-11-23T10:28:03.039Z,27.83
2022-11-23T10:30:29.572Z,26.60
2022-11-23T10:33:11.014Z,27.42
2022-11-23T10:35:38.462Z,26.27
2022-11-23T10:38:19.084Z,24.48
2022-11-23T10:41:08.838Z,52.15
2022-11-23T10:43:41.663Z,28.40
2022-11-23T10:46:23.708Z,29.90
2022-11-23T10:48:51.666Z,23.73
2022-11-23T10:51:31.795Z,21.77
2022-11-23T10:54:23.409Z,23.52
2022-11-23T10:56:51.861Z,20.98
2022-11-23T10:59:38.924Z,20.73
2022-11-23T11:02:05.395Z,22.42
2022-11-23T11:04:32.074Z,20.30
2022-11-23T11:07:31.557Z,19.05
2022-11-23T11:10:04.097Z,17.85
2022-11-23T11:12:34.580Z,17.40
2022-11-23T11:15:12.228Z,17.10
2022-11-23T11:17:41.039Z,18.05
2022-11-23T11:20:31.549Z,17.83
2022-11-23T11:23:17.573Z,17.50
2022-11-23T11:25:44.651Z,14.73
2022-11-23T11:31:44.461Z,13.98
2022-11-23T11:34:23.793Z,15.93
2022-11-23T11:37:02.317Z,16.83
2022-11-23T11:39:38.116Z,17.85
2022-11-23T11:42:08.991Z,16.23
2022-11-23T11:44:39.831Z,17.40
2022-11-23T11:47:24.677Z,15.10
2022-11-23T11:49:55.100Z,13.18
2022-11-23T11:52:37.333Z,12.48
2022-11-23T11:55:22.610Z,14.05
2022-11-23T11:57:55.035Z,15.15
2022-11-23T12:00:21.811Z,13.63
2022-11-23T12:03:19.423Z,14.50
2022-11-23T12:05:52.269Z,14.82
2022-11-23T12:08:32.134Z,14.38
2022-11-23T12:11:02.136Z,14.27
2022-11-23T12:13:38.697Z,14.30
2022-11-23T12:16:05.162Z,15.88
2022-11-23T12:18:34.432Z,15.25
2022-11-23T12:21:19.334Z,14.70
2022-11-23T12:24:01.782Z,15.30
2022-11-23T12:26:43.284Z,15.77
2022-11-23T12:29:16.562Z,16.00
2022-11-23T12:31:49.111Z,15.15
2022-11-23T12:34:44.509Z,16.42
2022-11-23T12:37:11.500Z,15.47
2022-11-23T12:42:34.798Z,15.73
2022-11-23T12:45:17.475Z,23.48
2022-11-23T12:48:08.290Z,15.07
2022-11-23T12:50:37.773Z,17.30
2022-11-23T12:53:43.299Z,18.83
2022-11-23T12:56:15.651Z,18.77
2022-11-23T12:58:44.546Z,17.35
2022-11-23T13:01:32.488Z,20.58
2022-11-23T13:04:32.811Z,21.05
2022-11-23T13:07:30.308Z,22.17
2022-11-23T13:10:48.049Z,26.05
2022-11-23T13:13:22.630Z,24.55
2022-11-23T13:16:19.936Z,24.65
2022-11-23T13:19:14.826Z,23.92
2022-11-23T13:21:44.655Z,24.70
2022-11-23T13:24:33.686Z,23.83
2022-11-23T13:27:15.681Z,22.85
2022-11-23T13:29:51.295Z,22.55
2022-11-23T13:32:39.416Z,24.25
2022-11-23T13:35:21.215Z,24.88
2022-11-23T13:37:56.917Z,21.35
2022-11-23T13:40:26.522Z,21.60
2022-11-23T13:42:57.656Z,24.08
2022-11-23T13:45:28.394Z,23.67
2022-11-23T13:48:34.353Z,22.13
2022-11-23T13:51:01.467Z,25.15
2022-11-23T13:53:39.690Z,20.08
2022-11-23T13:56:44.881Z,22.35
2022-11-23T13:59:23.680Z,25.43
2022-11-23T14:02:22.263Z,26.27
2022-11-23T14:04:49.462Z,26.73
2022-11-23T14:07:18.797Z,27.35
2022-11-23T14:09:51.541Z,28.75
2022-11-23T14:12:46.682Z,23.55
2022-11-23T14:15:25.497Z,21.88
2022-11-23T14:18:13.769Z,27.52
2022-11-23T14:20:52.315Z,28.17
2022-11-23T14:23:46.521Z,24.65
2022-11-23T14:26:34.183Z,29.35
2022-11-23T14:29:06.373Z,29.20
2022-11-23T14:31:42.569Z,27.23
2022-11-23T14:34:25.904Z,28.35
2022-11-23T14:37:23.475Z,27.60
2022-11-23T14:39:59.769Z,29.70
2022-11-23T14:42:29.393Z,24.55
2022-11-23T14:45:01.689Z,25.63
2022-11-23T14:47:30.370Z,27.15
2022-11-23T14:49:57.417Z,27.20
2022-11-23T14:54:57.898Z,26.70
2022-11-23T14:57:36.224Z,27.20
2022-11-23T15:00:07.169Z,27.63
2022-11-23T15:02:41.266Z,27.30
2022-11-23T15:05:16.751Z,27.65
2022-11-23T15:07:52.487Z,32.50
2022-11-23T15:10:24.854Z,27.40
2022-11-23T15:12:51.426Z,28.45
2022-11-23T15:15:26.283Z,31.42
2022-11-23T15:18:01.431Z,28.92
2022-11-23T15:20:40.868Z,25.70
2022-11-23T15:23:16.559Z,28.17
2022-11-23T15:25:53.709Z,26.85
2022-11-23T15:28:28.781Z,27.00
2022-11-23T15:30:58.610Z,26.30
2022-11-23T15:33:26.215Z,28.25
2022-11-23T15:35:54.691Z,27.85
2022-11-23T15:38:23.906Z,28.48
2022-11-23T15:40:51.476Z,27.42
2022-11-23T15:43:19.921Z,27.48
2022-11-23T15:45:46.559Z,26.23
2022-11-23T15:48:14.903Z,30.38
2022-11-23T15:50:59.556Z,28.98
2022-11-23T15:53:32.481Z,26.90
2022-11-23T15:56:05.548Z,26.45
2022-11-23T15:58:33.979Z,28.15
2022-11-23T16:01:12.509Z,28.40
2022-11-23T16:04:01.084Z,29.48
2022-11-23T16:06:40.869Z,28.02
2022-11-23T16:12:25.758Z,33.05
2022-11-23T16:14:54.427Z,30.63
2022-11-23T16:17:29.458Z,29.85
2022-11-23T16:20:03.949Z,28.67
2022-11-23T16:22:37.875Z,28.98
2022-11-23T16:25:18.055Z,30.67
2022-11-23T16:27:44.695Z,31.10
2022-11-23T16:30:25.631Z,27.50
2022-11-23T16:32:52.494Z,28.92
2022-11-23T16:35:20.768Z,30.08
2022-11-23T16:37:47.410Z,31.05
2022-11-23T16:40:14.659Z,31.35
2022-11-23T16:42:43.301Z,25.60
2022-11-23T16:45:10.746Z,29.65
2022-11-23T16:47:51.874Z,33.35
2022-11-23T16:50:18.677Z,29.13
2022-11-23T16:52:45.242Z,27.58
2022-11-23T16:55:11.740Z,30.42
2022-11-23T16:57:38.911Z,23.02
2022-11-23T17:00:36.098Z,32.05
2022-11-23T17:03:02.751Z,28.98
2022-11-23T17:05:29.267Z,31.45
2022-11-23T17:07:55.877Z,28.75
2022-11-23T17:10:22.574Z,39.95
2022-11-23T17:12:55.107Z,31.35
2022-11-23T17:15:23.336Z,29.98
2022-11-23T17:17:50.250Z,30.83
2022-11-23T17:20:18.005Z,27.27
2022-11-23T17:22:45.044Z,31.52
2022-11-23T17:27:42.339Z,31.70
2022-11-23T17:32:47.848Z,33.65
2022-11-23T17:35:15.021Z,33.60
2022-11-23T17:37:42.158Z,35.10
2022-11-23T17:40:19.985Z,29.10
2022-11-23T17:42:47.451Z,35.35
2022-11-23T17:45:14.625Z,33.05
2022-11-23T17:47:44.136Z,38.92
2022-11-23T17:50:17.561Z,35.95
2022-11-23T17:52:45.549Z,39.88
2022-11-23T17:55:13.071Z,37.80
2022-11-23T17:57:40.450Z,38.83
2022-11-23T18:00:23.117Z,38.65
2022-11-23T18:02:50.009Z,38.70
2022-11-23T18:05:21.530Z,36.47
2022-11-23T18:07:49.351Z,37.30
2022-11-23T18:10:16.354Z,38.88
2022-11-23T18:12:44.689Z,31.75
2022-11-23T18:15:12.122Z,34.25
2022-11-23T18:17:38.776Z,34.85
2022-11-23T18:20:08.255Z,35.60
2022-11-23T18:22:35.144Z,35.13
2022-11-23T18:25:01.949Z,39.05
2022-11-23T18:27:29.816Z,35.50
2022-11-23T18:29:56.557Z,37.90
2022-11-23T18:32:23.118Z,33.95
2022-11-23T18:34:49.676Z,35.92
2022-11-23T18:37:16.398Z,32.80
2022-11-23T18:39:42.932Z,36.75
2022-11-23T18:42:10.016Z,35.15
2022-11-23T18:47:03.039Z,31.83
2022-11-23T18:49:29.579Z,31.70
2022-11-23T18:51:56.123Z,31.33
2022-11-23T18:54:22.611Z,28.92
2022-11-23T18:56:49.152Z,31.73
2022-11-23T18:59:50.122Z,37.67
2022-11-23T19:02:02.298Z,39.08
2022-11-23T19:04:32.499Z,36.00
2022-11-23T19:06:59.038Z,39.92
2022-11-23T19:09:25.492Z,36.30
2022-11-23T19:11:52.003Z,31.08
2022-11-23T19:14:18.537Z,33.42
2022-11-23T19:16:45.079Z,37.85
2022-11-23T19:19:11.700Z,32.22
2022-11-23T19:21:39.186Z,32.85
2022-11-23T19:24:06.675Z,31.45
2022-11-23T19:26:33.252Z,34.35
2022-11-23T19:29:00.149Z,36.10
2022-11-23T19:31:32.217Z,34.97
2022-11-23T19:34:01.284Z,38.92
2022-11-23T19:36:30.119Z,31.50
2022-11-23T19:38:58.206Z,36.63
2022-11-23T19:41:29.793Z,38.67
2022-11-23T19:43:58.919Z,38.22
2022-11-23T19:46:26.306Z,33.88
2022-11-23T19:48:54.872Z,33.88
2022-11-23T19:51:21.480Z,34.97
2022-11-23T19:53:49.350Z,34.35
2022-11-23T19:56:21.727Z,38.00
2022-11-23T19:58:54.768Z,37.30
2022-11-23T20:01:23.496Z,37.78
2022-11-23T20:03:52.147Z,35.95
2022-11-23T20:06:27.259Z,39.20
2022-11-23T20:08:59.120Z,38.85
2022-11-23T20:11:27.425Z,37.63
2022-11-23T20:13:54.850Z,34.30
2022-11-23T20:16:22.423Z,34.25
2022-11-23T20:18:54.647Z,34.63
2022-11-23T20:21:21.129Z,34.00
2022-11-23T20:23:50.307Z,42.63
2022-11-23T20:26:20.238Z,52.53
2022-11-23T20:28:51.337Z,59.75
2022-11-23T20:31:20.860Z,56.77
2022-11-23T20:33:50.600Z,58.85
2022-11-23T20:36:25.217Z,59.20
2022-11-23T20:38:53.157Z,56.72
2022-11-23T20:41:28.075Z,58.60
2022-11-23T20:43:57.788Z,62.00
2022-11-23T20:46:46.109Z,51.63
2022-11-23T20:49:12.201Z,54.13
2022-11-23T20:51:38.879Z,46.28
2022-11-23T20:54:05.472Z,45.00
2022-11-23T20:56:32.410Z,41.08
2022-11-23T20:59:04.228Z,41.88
2022-11-23T21:01:30.872Z,41.13
2022-11-23T21:03:59.300Z,39.38
2022-11-23T21:06:26.834Z,40.08
2022-11-23T21:08:53.786Z,36.05
2022-11-23T21:11:46.175Z,38.45
2022-11-23T21:14:27.147Z,44.42
2022-11-23T21:16:58.961Z,40.30
2022-11-23T21:19:31.021Z,39.20
2022-11-23T21:21:59.248Z,35.38
2022-11-23T21:24:25.968Z,36.97
2022-11-23T21:26:52.661Z,38.35
2022-11-23T21:29:19.484Z,35.88
2022-11-23T21:31:48.408Z,34.47
2022-11-23T21:34:19.092Z,34.50
2022-11-23T21:36:46.044Z,35.50
2022-11-23T21:39:13.741Z,37.42
2022-11-23T21:41:40.334Z,38.92
2022-11-23T21:44:08.445Z,39.50
2022-11-23T21:46:37.206Z,36.03
2022-11-23T21:49:04.713Z,41.67
2022-11-23T21:51:31.363Z,41.35
2022-11-23T21:54:00.522Z,40.83
2022-11-23T21:56:28.321Z,36.58
2022-11-23T21:58:55.614Z,38.53
2022-11-23T22:01:24.925Z,39.15
2022-11-23T22:03:54.293Z,39.00
2022-11-23T22:06:21.333Z,36.00
2022-11-23T22:11:23.588Z,35.25
2022-11-23T22:14:13.606Z,35.17
2022-11-23T22:16:43.902Z,39.38
2022-11-23T22:19:12.625Z,38.53
2022-11-23T22:21:40.857Z,34.95
2022-11-23T22:24:12.621Z,39.47
2022-11-23T22:26:39.223Z,43.63
2022-11-23T22:29:06.855Z,37.83
2022-11-23T22:31:35.120Z,39.10
2022-11-23T22:34:02.996Z,38.28
2022-11-23T22:36:30.176Z,37.13
2022-11-23T22:39:05.427Z,34.67
2022-11-23T22:41:37.538Z,36.65
2022-11-23T22:44:09.271Z,39.83
2022-11-23T22:46:37.656Z,38.70
2022-11-23T22:49:04.668Z,36.65
2022-11-23T22:51:31.366Z,35.55
2022-11-23T22:53:59.890Z,39.25
2022-11-23T22:56:27.871Z,37.83
2022-11-23T22:58:54.743Z,34.78
2022-11-23T23:01:23.418Z,32.60
2022-11-23T23:03:55.732Z,31.17
2022-11-23T23:06:27.577Z,36.00
2022-11-23T23:08:56.467Z,35.08
2022-11-23T23:11:24.194Z,34.75
2022-11-23T23:13:51.903Z,40.28
2022-11-23T23:16:18.981Z,38.13
2022-11-23T23:18:45.690Z,36.00
2022-11-23T23:21:15.051Z,38.25
2022-11-23T23:23:44.063Z,34.93
2022-11-23T23:26:12.025Z,37.90
2022-11-23T23:28:39.282Z,36.60
2022-11-23T23:31:17.231Z,34.22
2022-11-23T23:33:45.575Z,35.38
2022-11-23T23:36:17.847Z,35.80
2022-11-23T23:38:44.524Z,39.50
2022-11-23T23:41:12.451Z,34.88
2022-11-23T23:43:39.810Z,41.13
2022-11-23T23:46:09.679Z,38.88
2022-11-23T23:48:38.806Z,39.28
2022-11-23T23:51:17.675Z,40.00
2022-11-23T23:53:45.121Z,38.67
2022-11-23T23:56:13.555Z,39.78
2022-11-23T23:58:40.147Z,36.50
